createdAt,value
2023-02-13T00:02:26.250Z,-7.46
2023-02-13T00:04:55.732Z,-7.49
2023-02-13T00:07:25.981Z,-7.49
2023-02-13T00:09:55.866Z,-7.49
2023-02-13T00:12:32.428Z,-7.50
2023-02-13T00:15:03.489Z,-7.56
2023-02-13T00:17:33.533Z,-7.64
2023-02-13T00:20:04.090Z,-7.66
2023-02-13T00:22:37.992Z,-7.75
2023-02-13T00:25:08.293Z,-7.78
2023-02-13T00:27:42.992Z,-7.81
2023-02-13T00:30:13.489Z,-7.80
2023-02-13T00:32:43.098Z,-7.82
2023-02-13T00:35:12.333Z,-7.83
2023-02-13T00:37:43.201Z,-7.79
2023-02-13T00:40:14.237Z,-7.73
2023-02-13T00:42:44.176Z,-7.69
2023-02-13T00:45:15.038Z,-7.62
2023-02-13T00:47:45.188Z,-7.47
2023-02-13T00:50:18.588Z,-7.39
2023-02-13T00:52:48.714Z,-7.29
2023-02-13T00:55:21.956Z,-7.19
2023-02-13T00:57:51.264Z,-7.15
2023-02-13T01:00:21.001Z,-7.12
2023-02-13T01:02:50.568Z,-7.02
2023-02-13T01:05:21.952Z,-7.02
2023-02-13T01:07:52.405Z,-7.02
2023-02-13T01:10:23.556Z,-7.06
2023-02-13T01:12:53.512Z,-7.03
2023-02-13T01:15:23.182Z,-7.03
2023-02-13T01:17:55.726Z,-7.03
2023-02-13T01:20:56.820Z,-6.96
2023-02-13T01:23:34.927Z,-6.96
2023-02-13T01:26:07.163Z,-6.95
2023-02-13T01:28:37.150Z,-6.94
2023-02-13T01:31:19.169Z,-6.92
2023-02-13T01:33:48.542Z,-6.96
2023-02-13T01:36:19.071Z,-6.95
2023-02-13T01:38:49.557Z,-6.95
2023-02-13T01:41:19.100Z,-6.94
2023-02-13T01:43:57.843Z,-6.95
2023-02-13T01:46:34.141Z,-6.97
2023-02-13T01:49:21.986Z,-6.94
2023-02-13T01:51:54.587Z,-6.93
2023-02-13T01:54:31.587Z,-6.93
2023-02-13T01:57:05.990Z,-6.96
2023-02-13T01:59:40.189Z,-7.06
2023-02-13T02:02:10.496Z,-7.13
2023-02-13T02:04:40.851Z,-7.20
2023-02-13T02:07:28.034Z,-7.21
2023-02-13T02:10:10.669Z,-7.27
2023-02-13T02:12:52.896Z,-7.29
2023-02-13T02:15:23.054Z,-7.36
2023-02-13T02:17:53.844Z,-7.46
2023-02-13T02:20:53.833Z,-7.52
2023-02-13T02:23:43.330Z,-7.62
2023-02-13T02:26:32.779Z,-7.67
2023-02-13T02:29:15.750Z,-7.71
2023-02-13T02:31:54.372Z,-7.73
2023-02-13T02:34:52.559Z,-7.77
2023-02-13T02:37:28.550Z,-7.88
2023-02-13T02:40:01.399Z,-7.92
2023-02-13T02:43:02.024Z,-7.97
2023-02-13T02:45:54.712Z,-8.02
2023-02-13T02:48:53.625Z,-8.09
2023-02-13T02:51:39.773Z,-8.14
2023-02-13T02:54:49.983Z,-8.19
2023-02-13T02:57:26.424Z,-8.24
2023-02-13T03:00:18.250Z,-8.26
2023-02-13T03:03:05.994Z,-8.27
2023-02-13T03:06:03.286Z,-8.26
2023-02-13T03:08:51.566Z,-8.31
2023-02-13T03:11:39.148Z,-8.37
2023-02-13T03:14:10.323Z,-8.49
2023-02-13T03:16:58.678Z,-8.57
2023-02-13T03:19:50.675Z,-8.69
2023-02-13T03:22:58.212Z,-8.76
2023-02-13T03:25:36.351Z,-8.82
2023-02-13T03:28:27.283Z,-8.85
2023-02-13T03:31:32.294Z,-8.87
2023-02-13T03:34:22.396Z,-8.88
2023-02-13T03:37:19.675Z,-8.89
2023-02-13T03:39:51.012Z,-8.90
2023-02-13T03:42:38.562Z,-8.91
2023-02-13T03:45:47.312Z,-8.89
2023-02-13T03:48:52.490Z,-8.85
2023-02-13T03:51:33.158Z,-8.79
2023-02-13T03:54:15.109Z,-8.74
2023-02-13T03:57:23.193Z,-8.63
2023-02-13T03:59:57.178Z,-8.66
2023-02-13T04:02:30.834Z,-8.67
2023-02-13T04:05:16.182Z,-8.67
2023-02-13T04:07:46.296Z,-8.65
2023-02-13T04:10:16.722Z,-8.74
2023-02-13T04:13:14.834Z,-8.79
2023-02-13T04:15:58.422Z,-8.81
2023-02-13T04:18:32.166Z,-8.79
2023-02-13T04:21:06.668Z,-8.76
2023-02-13T04:23:37.080Z,-8.69
2023-02-13T04:26:08.566Z,-8.65
2023-02-13T04:28:38.483Z,-8.66
2023-02-13T04:31:07.856Z,-8.70
2023-02-13T04:33:37.876Z,-8.76
2023-02-13T04:36:07.517Z,-8.82
2023-02-13T04:38:36.998Z,-8.85
2023-02-13T04:41:06.527Z,-8.91
2023-02-13T04:43:37.983Z,-8.90
2023-02-13T04:46:07.457Z,-8.89
2023-02-13T04:48:38.793Z,-8.91
2023-02-13T04:51:09.006Z,-8.93
2023-02-13T04:53:38.894Z,-8.94
2023-02-13T04:56:08.349Z,-8.95
2023-02-13T04:58:38.525Z,-9.00
2023-02-13T05:01:17.816Z,-9.00
2023-02-13T05:03:47.375Z,-9.01
2023-02-13T05:06:17.125Z,-9.01
2023-02-13T05:08:46.784Z,-9.03
2023-02-13T05:11:16.834Z,-9.03
2023-02-13T05:13:50.893Z,-9.05
2023-02-13T05:16:22.106Z,-9.01
2023-02-13T05:18:55.389Z,-8.97
2023-02-13T05:21:44.953Z,-8.89
2023-02-13T05:24:14.100Z,-8.81
2023-02-13T05:26:44.319Z,-8.76
2023-02-13T05:29:19.574Z,-8.70
2023-02-13T05:31:54.611Z,-8.58
2023-02-13T05:34:25.303Z,-8.43
2023-02-13T05:36:55.684Z,-8.29
2023-02-13T05:39:25.039Z,-8.36
2023-02-13T05:41:54.437Z,-8.16
2023-02-13T05:44:24.272Z,-8.13
2023-02-13T05:46:54.179Z,-7.93
2023-02-13T05:49:23.937Z,-7.80
2023-02-13T05:51:53.222Z,-7.63
2023-02-13T05:54:22.519Z,-7.53
2023-02-13T05:56:51.842Z,-7.38
2023-02-13T05:59:23.207Z,-7.33
2023-02-13T06:01:54.315Z,-7.27
2023-02-13T06:04:23.904Z,-7.10
2023-02-13T06:06:53.692Z,-6.93
2023-02-13T06:09:23.117Z,-6.80
2023-02-13T06:11:54.436Z,-6.58
2023-02-13T06:14:24.124Z,-6.46
2023-02-13T06:16:58.397Z,-6.27
2023-02-13T06:19:28.025Z,-6.10
2023-02-13T06:21:57.809Z,-5.91
2023-02-13T06:24:27.604Z,-5.73
2023-02-13T06:26:56.920Z,-5.64
2023-02-13T06:29:26.300Z,-5.54
2023-02-13T06:31:55.549Z,-5.47
2023-02-13T06:34:25.245Z,-5.41
2023-02-13T06:36:54.694Z,-5.32
2023-02-13T06:39:24.112Z,-5.20
2023-02-13T06:41:53.471Z,-5.07
2023-02-13T06:44:24.123Z,-4.86
2023-02-13T06:46:53.902Z,-4.69
2023-02-13T06:49:23.294Z,-4.51
2023-02-13T06:51:52.530Z,-4.35
2023-02-13T06:54:31.191Z,-4.22
2023-02-13T06:57:11.353Z,-4.09
2023-02-13T06:59:40.658Z,-3.97
2023-02-13T07:02:13.566Z,-3.84
2023-02-13T07:04:46.141Z,-3.68
2023-02-13T07:07:15.730Z,-3.59
2023-02-13T07:09:45.177Z,-3.44
2023-02-13T07:12:14.455Z,-3.29
2023-02-13T07:14:43.742Z,-3.19
2023-02-13T07:17:13.530Z,-3.05
2023-02-13T07:19:42.968Z,-2.82
2023-02-13T07:22:16.029Z,-2.70
2023-02-13T07:24:46.600Z,-2.60
2023-02-13T07:27:15.811Z,-2.60
2023-02-13T07:29:45.248Z,-2.59
2023-02-13T07:32:14.869Z,-2.51
2023-02-13T07:34:59.551Z,-2.52
2023-02-13T07:37:31.130Z,-2.58
2023-02-13T07:40:00.592Z,-2.59
2023-02-13T07:42:37.970Z,-2.56
2023-02-13T07:45:08.943Z,-2.32
2023-02-13T07:47:38.328Z,-2.18
2023-02-13T07:50:09.129Z,-2.13
2023-02-13T07:52:39.537Z,-2.17
2023-02-13T07:55:12.365Z,-2.11
2023-02-13T07:57:42.657Z,-2.06
2023-02-13T08:00:14.057Z,-1.90
2023-02-13T08:02:44.570Z,-1.83
2023-02-13T08:05:14.463Z,-1.81
2023-02-13T08:07:45.195Z,-1.66
2023-02-13T08:10:37.493Z,-1.53
2023-02-13T08:13:08.192Z,-1.38
2023-02-13T08:15:37.851Z,-1.25
2023-02-13T08:18:08.306Z,-1.10
2023-02-13T08:20:38.297Z,-0.98
2023-02-13T08:23:10.584Z,-0.85
2023-02-13T08:25:43.365Z,-0.83
2023-02-13T08:28:13.541Z,-0.82
2023-02-13T08:30:43.722Z,-0.83
2023-02-13T08:33:14.968Z,-0.83
2023-02-13T08:35:44.788Z,-0.79
2023-02-13T08:38:15.139Z,-0.76
2023-02-13T08:40:45.803Z,-0.71
2023-02-13T08:43:15.260Z,-0.56
2023-02-13T08:45:47.277Z,-0.30
2023-02-13T08:48:17.611Z,-0.09
2023-02-13T08:50:47.392Z,-0.07
2023-02-13T08:53:17.868Z,0.09
2023-02-13T08:55:55.545Z,0.17
2023-02-13T08:58:26.442Z,0.19
2023-02-13T09:00:56.551Z,0.24
2023-02-13T09:03:26.981Z,0.18
2023-02-13T09:06:00.096Z,0.20
2023-02-13T09:08:31.859Z,0.22
2023-02-13T09:11:02.847Z,0.23
2023-02-13T09:13:36.180Z,0.22
2023-02-13T09:16:08.224Z,0.19
2023-02-13T09:18:38.091Z,0.22
2023-02-13T09:21:09.340Z,0.25
2023-02-13T09:23:41.246Z,0.35
2023-02-13T09:26:12.582Z,0.50
2023-02-13T09:28:42.422Z,0.71
2023-02-13T09:31:17.152Z,0.85
2023-02-13T09:33:47.957Z,0.98
2023-02-13T09:36:22.303Z,1.06
2023-02-13T09:38:56.234Z,1.08
2023-02-13T09:41:33.197Z,1.03
2023-02-13T09:44:08.548Z,0.98
2023-02-13T09:46:41.784Z,0.95
2023-02-13T09:49:20.336Z,0.85
2023-02-13T09:51:54.334Z,0.71
2023-02-13T09:54:25.722Z,0.72
2023-02-13T09:57:08.710Z,0.87
2023-02-13T09:59:47.468Z,1.09
2023-02-13T10:02:32.447Z,1.21
2023-02-13T10:05:05.215Z,1.29
2023-02-13T10:08:02.056Z,1.28
2023-02-13T10:10:59.216Z,1.32
2023-02-13T10:13:45.434Z,1.36
2023-02-13T10:16:16.300Z,1.48
2023-02-13T10:18:49.040Z,1.72
2023-02-13T10:21:21.604Z,1.84
2023-02-13T10:24:02.654Z,1.90
2023-02-13T10:26:43.328Z,1.97
2023-02-13T10:29:42.714Z,2.03
2023-02-13T10:32:15.613Z,2.08
2023-02-13T10:34:46.216Z,2.17
2023-02-13T10:37:21.927Z,2.31
2023-02-13T10:39:54.925Z,2.31
2023-02-13T10:42:32.175Z,2.32
2023-02-13T10:45:21.715Z,2.33
2023-02-13T10:48:10.550Z,2.43
2023-02-13T10:51:01.312Z,2.44
2023-02-13T10:53:44.350Z,2.33
2023-02-13T10:56:46.074Z,2.41
2023-02-13T10:59:20.461Z,2.57
2023-02-13T11:01:56.943Z,2.56
2023-02-13T11:04:27.410Z,2.43
2023-02-13T11:07:03.352Z,2.48
2023-02-13T11:09:39.153Z,2.63
2023-02-13T11:12:33.217Z,2.81
2023-02-13T11:15:06.800Z,2.85
2023-02-13T11:17:38.310Z,2.80
2023-02-13T11:20:30.260Z,2.70
2023-02-13T11:23:19.376Z,2.64
2023-02-13T11:26:04.084Z,2.67
2023-02-13T11:28:37.326Z,2.68
2023-02-13T11:31:21.499Z,2.73
2023-02-13T11:33:51.449Z,2.79
2023-02-13T11:36:32.433Z,2.87
2023-02-13T11:39:07.826Z,2.90
2023-02-13T11:41:41.328Z,2.95
2023-02-13T11:44:20.640Z,3.02
2023-02-13T11:46:52.368Z,3.03
2023-02-13T11:49:26.655Z,2.97
2023-02-13T11:51:57.785Z,2.86
2023-02-13T11:54:27.459Z,2.84
2023-02-13T11:57:05.441Z,2.90
2023-02-13T11:59:43.323Z,2.93
2023-02-13T12:02:30.217Z,2.97
2023-02-13T12:05:19.684Z,2.97
2023-02-13T12:07:49.266Z,2.99
2023-02-13T12:10:23.881Z,3.01
2023-02-13T12:13:03.339Z,3.07
2023-02-13T12:15:34.578Z,3.04
2023-02-13T12:18:16.034Z,2.94
2023-02-13T12:20:59.264Z,2.88
2023-02-13T12:23:46.170Z,3.00
2023-02-13T12:26:19.557Z,3.26
2023-02-13T12:29:06.831Z,3.33
2023-02-13T12:32:11.815Z,3.27
2023-02-13T12:35:13.577Z,3.24
2023-02-13T12:38:14.946Z,3.30
2023-02-13T12:41:00.435Z,3.34
2023-02-13T12:43:42.324Z,3.36
2023-02-13T12:46:15.752Z,3.28
2023-02-13T12:48:53.611Z,3.23
2023-02-13T12:51:49.094Z,3.21
2023-02-13T12:54:42.062Z,3.20
2023-02-13T12:57:35.329Z,3.28
2023-02-13T13:00:14.957Z,3.34
2023-02-13T13:02:46.872Z,3.34
2023-02-13T13:05:27.499Z,3.34
2023-02-13T13:08:01.663Z,3.32
2023-02-13T13:11:04.016Z,3.34
2023-02-13T13:14:10.166Z,3.38
2023-02-13T13:16:52.686Z,3.39
2023-02-13T13:19:50.586Z,3.38
2023-02-13T13:22:34.147Z,3.30
2023-02-13T13:25:49.638Z,3.31
2023-02-13T13:28:24.271Z,3.27
2023-02-13T13:30:53.712Z,3.26
2023-02-13T13:33:26.326Z,3.31
2023-02-13T13:36:01.984Z,3.32
2023-02-13T13:38:36.384Z,3.31
2023-02-13T13:41:24.626Z,3.28
2023-02-13T13:44:12.060Z,3.21
2023-02-13T13:47:00.838Z,3.09
2023-02-13T13:49:37.491Z,3.02
2023-02-13T13:52:22.223Z,2.99
2023-02-13T13:54:53.206Z,2.89
2023-02-13T13:57:24.914Z,2.83
2023-02-13T14:00:30.277Z,2.79
2023-02-13T14:02:59.621Z,2.71
2023-02-13T14:05:33.909Z,2.62
2023-02-13T14:08:09.907Z,2.55
2023-02-13T14:10:59.893Z,2.42
2023-02-13T14:13:35.583Z,2.37
2023-02-13T14:16:07.878Z,2.36
2023-02-13T14:18:38.904Z,2.32
2023-02-13T14:21:09.013Z,2.27
2023-02-13T14:23:54.024Z,2.21
2023-02-13T14:26:31.164Z,2.14
2023-02-13T14:29:24.424Z,2.05
2023-02-13T14:32:06.113Z,1.93
2023-02-13T14:34:38.717Z,1.81
2023-02-13T14:37:13.580Z,1.63
2023-02-13T14:39:46.485Z,1.41
2023-02-13T14:42:26.475Z,1.21
2023-02-13T14:45:00.597Z,1.02
2023-02-13T14:47:40.906Z,0.86
2023-02-13T14:50:21.017Z,0.70
2023-02-13T14:52:51.284Z,0.52
2023-02-13T14:55:42.121Z,0.39
2023-02-13T14:58:21.715Z,0.23
2023-02-13T15:01:07.928Z,0.11
2023-02-13T15:03:40.718Z,-0.02
2023-02-13T15:06:33.993Z,-0.12
2023-02-13T15:09:07.070Z,-0.22
2023-02-13T15:11:38.712Z,-0.31
2023-02-13T15:14:17.869Z,-0.37
2023-02-13T15:17:00.357Z,-0.47
2023-02-13T15:19:29.930Z,-0.54
2023-02-13T15:22:01.587Z,-0.58
2023-02-13T15:24:39.658Z,-0.67
2023-02-13T15:27:16.465Z,-0.78
2023-02-13T15:29:56.104Z,-0.90
2023-02-13T15:32:39.756Z,-1.01
2023-02-13T15:35:34.838Z,-1.11
2023-02-13T15:38:31.872Z,-1.18
2023-02-13T15:41:14.106Z,-1.27
2023-02-13T15:43:49.205Z,-1.34
2023-02-13T15:46:34.479Z,-1.35
2023-02-13T15:49:17.572Z,-1.35
2023-02-13T15:51:48.342Z,-1.31
2023-02-13T15:54:30.968Z,-1.26
2023-02-13T15:57:02.125Z,-1.21
2023-02-13T15:59:38.928Z,-1.17
2023-02-13T16:02:24.671Z,-1.15
2023-02-13T16:04:55.256Z,-1.16
2023-02-13T16:08:02.977Z,-1.17
2023-02-13T16:10:35.130Z,-1.20
2023-02-13T16:13:07.286Z,-1.28
2023-02-13T16:15:42.848Z,-1.34
2023-02-13T16:18:19.759Z,-1.44
2023-02-13T16:20:54.450Z,-1.54
2023-02-13T16:23:25.496Z,-1.61
2023-02-13T16:25:57.029Z,-1.67
2023-02-13T16:28:28.632Z,-1.71
2023-02-13T16:31:06.698Z,-1.73
2023-02-13T16:33:39.693Z,-1.73
2023-02-13T16:36:10.066Z,-1.74
2023-02-13T16:38:50.599Z,-1.71
2023-02-13T16:41:40.953Z,-1.69
2023-02-13T16:44:30.156Z,-1.70
2023-02-13T16:47:25.039Z,-1.73
2023-02-13T16:49:57.012Z,-1.76
2023-02-13T16:52:30.062Z,-1.77
2023-02-13T16:55:00.965Z,-1.77
2023-02-13T16:57:35.708Z,-1.74
2023-02-13T17:00:07.451Z,-1.72
2023-02-13T17:02:40.488Z,-1.69
2023-02-13T17:05:11.916Z,-1.67
2023-02-13T17:07:52.139Z,-1.65
2023-02-13T17:10:29.949Z,-1.62
2023-02-13T17:13:03.567Z,-1.55
2023-02-13T17:15:35.644Z,-1.47
2023-02-13T17:18:05.975Z,-1.40
2023-02-13T17:20:37.462Z,-1.33
2023-02-13T17:23:08.330Z,-1.26
2023-02-13T17:25:40.825Z,-1.19
2023-02-13T17:28:14.235Z,-1.13
2023-02-13T17:30:44.452Z,-1.09
2023-02-13T17:33:21.813Z,-1.05
2023-02-13T17:35:54.718Z,-1.00
2023-02-13T17:38:25.547Z,-0.94
2023-02-13T17:40:56.532Z,-0.89
2023-02-13T17:43:29.032Z,-0.84
2023-02-13T17:46:01.650Z,-0.75
2023-02-13T17:48:32.837Z,-0.66
2023-02-13T17:51:04.554Z,-0.60
2023-02-13T17:53:35.436Z,-0.56
2023-02-13T17:56:09.484Z,-0.50
2023-02-13T17:58:44.871Z,-0.49
2023-02-13T18:01:17.424Z,-0.50
2023-02-13T18:03:47.941Z,-0.50
2023-02-13T18:06:20.006Z,-0.52
2023-02-13T18:08:52.133Z,-0.52
2023-02-13T18:11:24.252Z,-0.53
2023-02-13T18:13:55.218Z,-0.52
2023-02-13T18:16:32.452Z,-0.54
2023-02-13T18:19:05.382Z,-0.55
2023-02-13T18:21:36.884Z,-0.55
2023-02-13T18:24:09.838Z,-0.56
2023-02-13T18:26:43.815Z,-0.57
2023-02-13T18:29:17.425Z,-0.55
2023-02-13T18:31:53.798Z,-0.53
2023-02-13T18:34:25.274Z,-0.52
2023-02-13T18:36:55.923Z,-0.53
2023-02-13T18:39:27.331Z,-0.53
2023-02-13T18:41:57.786Z,-0.53
2023-02-13T18:44:29.203Z,-0.54
2023-02-13T18:47:01.603Z,-0.55
2023-02-13T18:49:33.567Z,-0.53
2023-02-13T18:52:04.822Z,-0.50
2023-02-13T18:54:36.081Z,-0.48
2023-02-13T18:57:06.698Z,-0.47
2023-02-13T18:59:37.747Z,-0.45
2023-02-13T19:02:07.686Z,-0.45
2023-02-13T19:04:40.784Z,-0.44
2023-02-13T19:07:11.125Z,-0.41
2023-02-13T19:09:41.768Z,-0.38
2023-02-13T19:12:12.616Z,-0.37
2023-02-13T19:14:43.016Z,-0.40
2023-02-13T19:17:14.205Z,-0.39
2023-02-13T19:19:49.923Z,-0.34
2023-02-13T19:22:20.451Z,-0.31
2023-02-13T19:24:50.835Z,-0.28
2023-02-13T19:27:22.351Z,-0.23
2023-02-13T19:29:53.387Z,-0.16
2023-02-13T19:32:23.642Z,-0.10
2023-02-13T19:34:54.199Z,-0.05
2023-02-13T19:37:28.523Z,0.00
2023-02-13T19:40:00.767Z,0.04
2023-02-13T19:42:30.989Z,0.05
2023-02-13T19:45:00.889Z,0.06
2023-02-13T19:47:30.622Z,0.04
2023-02-13T19:50:00.490Z,0.08
2023-02-13T19:52:31.150Z,0.07
2023-02-13T19:55:02.277Z,0.08
2023-02-13T19:57:32.822Z,0.11
2023-02-13T20:00:22.587Z,0.10
2023-02-13T20:03:07.295Z,0.12
2023-02-13T20:05:40.114Z,0.13
2023-02-13T20:08:11.217Z,0.19
2023-02-13T20:10:46.025Z,0.22
2023-02-13T20:13:17.615Z,0.24
2023-02-13T20:15:47.510Z,0.25
2023-02-13T20:18:23.347Z,0.26
2023-02-13T20:20:53.571Z,0.28
2023-02-13T20:23:23.487Z,0.30
2023-02-13T20:25:54.291Z,0.32
2023-02-13T20:28:24.236Z,0.34
2023-02-13T20:30:55.315Z,0.36
2023-02-13T20:33:25.635Z,0.38
2023-02-13T20:35:56.346Z,0.38
2023-02-13T20:38:26.279Z,0.39
2023-02-13T20:40:56.514Z,0.41
2023-02-13T20:43:42.200Z,0.43
2023-02-13T20:46:11.677Z,0.45
2023-02-13T20:48:44.715Z,0.45
2023-02-13T20:51:14.931Z,0.45
2023-02-13T20:53:45.858Z,0.46
2023-02-13T20:56:20.051Z,0.50
2023-02-13T20:58:50.723Z,0.51
2023-02-13T21:01:31.756Z,0.54
2023-02-13T21:04:01.732Z,0.58
2023-02-13T21:06:33.843Z,0.58
2023-02-13T21:09:04.374Z,0.64
2023-02-13T21:11:36.535Z,0.67
2023-02-13T21:14:06.252Z,0.71
2023-02-13T21:16:38.020Z,0.75
2023-02-13T21:19:09.688Z,0.76
2023-02-13T21:21:39.428Z,0.78
2023-02-13T21:24:09.338Z,0.81
2023-02-13T21:26:41.848Z,0.83
2023-02-13T21:29:11.592Z,0.86
2023-02-13T21:31:48.271Z,0.83
2023-02-13T21:34:18.419Z,0.81
2023-02-13T21:36:51.349Z,0.77
2023-02-13T21:39:20.889Z,0.76
2023-02-13T21:41:50.629Z,0.77
2023-02-13T21:44:20.800Z,0.77
2023-02-13T21:46:51.276Z,0.77
2023-02-13T21:49:21.444Z,0.76
2023-02-13T21:51:50.945Z,0.78
2023-02-13T21:54:40.007Z,0.79
2023-02-13T21:57:11.438Z,0.79
2023-02-13T21:59:41.524Z,0.81
2023-02-13T22:02:11.580Z,0.83
2023-02-13T22:04:42.664Z,0.86
2023-02-13T22:07:12.198Z,0.89
2023-02-13T22:09:42.822Z,0.92
2023-02-13T22:12:12.418Z,0.90
2023-02-13T22:14:45.247Z,0.88
2023-02-13T22:17:15.096Z,0.88
2023-02-13T22:19:45.469Z,0.87
2023-02-13T22:22:16.247Z,0.87
2023-02-13T22:24:47.713Z,0.86
2023-02-13T22:27:17.039Z,0.81
2023-02-13T22:29:46.608Z,0.79
2023-02-13T22:32:16.271Z,0.77
2023-02-13T22:34:45.963Z,0.73
2023-02-13T22:37:15.490Z,0.76
2023-02-13T22:39:45.524Z,0.79
2023-02-13T22:42:15.508Z,0.81
2023-02-13T22:44:45.300Z,0.81
2023-02-13T22:47:14.861Z,0.86
2023-02-13T22:49:44.757Z,0.94
2023-02-13T22:52:14.860Z,0.97
2023-02-13T22:54:44.441Z,0.98
2023-02-13T22:57:13.649Z,1.03
2023-02-13T22:59:44.943Z,1.06
2023-02-13T23:02:14.511Z,1.05
2023-02-13T23:04:44.203Z,0.99
2023-02-13T23:07:15.512Z,0.99
2023-02-13T23:09:45.783Z,1.00
2023-02-13T23:12:33.806Z,1.00
2023-02-13T23:15:05.228Z,1.01
2023-02-13T23:17:53.001Z,1.00
2023-02-13T23:20:24.251Z,1.02
2023-02-13T23:22:57.837Z,1.01
2023-02-13T23:25:27.211Z,1.00
2023-02-13T23:27:58.395Z,0.99
2023-02-13T23:30:29.023Z,0.97
2023-02-13T23:32:59.025Z,0.96
2023-02-13T23:35:28.184Z,0.93
2023-02-13T23:37:57.715Z,0.92
2023-02-13T23:40:27.384Z,0.91
2023-02-13T23:42:57.160Z,0.88
2023-02-13T23:45:26.548Z,0.87
2023-02-13T23:47:56.194Z,0.86
2023-02-13T23:50:25.653Z,0.86
2023-02-13T23:52:55.084Z,0.88
2023-02-13T23:55:24.184Z,0.90
2023-02-13T23:57:54.222Z,0.91
